sensor_id;sensor_type;location;lat;lon;timestamp;pressure;altitude;pressure_sealevel;temperature;humidity
19590;BME280;12231;42.782;23.388;2023-07-31T00:00:58;95186.22;;;22.41;92.72
19590;BME280;12231;42.782;23.388;2023-07-31T00:03:23;95182.97;;;22.31;93.60
19590;BME280;12231;42.782;23.388;2023-07-31T00:05:48;95192.19;;;22.27;94.17
19590;BME280;12231;42.782;23.388;2023-07-31T00:08:14;95185.66;;;22.23;95.00
19590;BME280;12231;42.782;23.388;2023-07-31T00:10:39;95183.16;;;21.99;97.38
19590;BME280;12231;42.782;23.388;2023-07-31T00:13:05;95182.13;;;22.08;97.18
19590;BME280;12231;42.782;23.388;2023-07-31T00:15:30;95175.09;;;22.00;97.85
19590;BME280;12231;42.782;23.388;2023-07-31T00:17:55;95176.59;;;21.95;98.26
19590;BME280;12231;42.782;23.388;2023-07-31T00:20:22;95172.66;;;21.91;99.20
19590;BME280;12231;42.782;23.388;2023-07-31T00:22:48;95169.97;;;22.07;99.03
19590;BME280;12231;42.782;23.388;2023-07-31T00:25:13;95175.84;;;21.62;100.00
19590;BME280;12231;42.782;23.388;2023-07-31T00:27:38;95172.69;;;21.74;100.00
19590;BME280;12231;42.782;23.388;2023-07-31T00:30:04;95174.50;;;21.74;100.00
19590;BME280;12231;42.782;23.388;2023-07-31T00:32:30;95156.00;;;21.67;100.00
19590;BME280;12231;42.782;23.388;2023-07-31T00:34:55;95154.50;;;21.81;100.00
19590;BME280;12231;42.782;23.388;2023-07-31T00:37:21;95145.81;;;21.10;100.00
19590;BME280;12231;42.782;23.388;2023-07-31T00:39:46;95136.44;;;21.31;100.00
19590;BME280;12231;42.782;23.388;2023-07-31T00:42:11;95135.56;;;21.47;100.00
19590;BME280;12231;42.782;23.388;2023-07-31T00:44:37;95136.72;;;21.44;100.00
19590;BME280;12231;42.782;23.388;2023-07-31T00:47:02;95139.31;;;21.52;100.00
19590;BME280;12231;42.782;23.388;2023-07-31T00:49:28;95135.69;;;21.53;100.00
19590;BME280;12231;42.782;23.388;2023-07-31T00:51:57;95142.44;;;21.56;100.00
19590;BME280;12231;42.782;23.388;2023-07-31T00:54:23;95136.06;;;21.42;100.00
19590;BME280;12231;42.782;23.388;2023-07-31T00:56:50;95132.81;;;21.32;100.00
19590;BME280;12231;42.782;23.388;2023-07-31T00:59:18;95129.72;;;21.37;100.00
19590;BME280;12231;42.782;23.388;2023-07-31T01:01:44;95133.50;;;21.18;100.00
19590;BME280;12231;42.782;23.388;2023-07-31T01:04:11;95113.69;;;21.16;100.00
19590;BME280;12231;42.782;23.388;2023-07-31T01:06:48;71146.50;;;-141.97;100.00
19590;BME280;12231;42.782;23.388;2023-07-31T01:12:15;95112.91;;;20.99;100.00
19590;BME280;12231;42.782;23.388;2023-07-31T01:15:11;95115.69;;;20.98;100.00
19590;BME280;12231;42.782;23.388;2023-07-31T01:17:41;95118.91;;;21.16;100.00
19590;BME280;12231;42.782;23.388;2023-07-31T01:20:24;95109.88;;;21.34;100.00
19590;BME280;12231;42.782;23.388;2023-07-31T01:23:14;95116.31;;;21.08;100.00
19590;BME280;12231;42.782;23.388;2023-07-31T01:26:11;95106.28;;;21.19;100.00
19590;BME280;12231;42.782;23.388;2023-07-31T01:29:00;95115.00;;;21.12;100.00
19590;BME280;12231;42.782;23.388;2023-07-31T01:31:29;95114.19;;;20.95;100.00
19590;BME280;12231;42.782;23.388;2023-07-31T01:33:59;95120.88;;;21.30;100.00
19590;BME280;12231;42.782;23.388;2023-07-31T01:36:25;95120.88;;;21.30;100.00
19590;BME280;12231;42.782;23.388;2023-07-31T01:38:51;95109.28;;;22.02;100.00
19590;BME280;12231;42.782;23.388;2023-07-31T01:41:17;95098.94;;;22.31;100.00
19590;BME280;12231;42.782;23.388;2023-07-31T01:43:43;95112.56;;;22.57;100.00
19590;BME280;12231;42.782;23.388;2023-07-31T01:46:08;95106.78;;;22.61;100.00
19590;BME280;12231;42.782;23.388;2023-07-31T01:48:34;95121.09;;;22.81;100.00
19590;BME280;12231;42.782;23.388;2023-07-31T01:51:02;95121.09;;;22.81;100.00
19590;BME280;12231;42.782;23.388;2023-07-31T01:53:28;95118.03;;;22.92;100.00
19590;BME280;12231;42.782;23.388;2023-07-31T01:55:54;59471.19;;;-141.97;100.00
19590;BME280;12231;42.782;23.388;2023-07-31T01:58:19;59471.19;;;-141.97;100.00
19590;BME280;12231;42.782;23.388;2023-07-31T02:00:45;59471.19;;;-141.97;100.00
19590;BME280;12231;42.782;23.388;2023-07-31T02:03:11;59471.19;;;-141.97;100.00
19590;BME280;12231;42.782;23.388;2023-07-31T02:05:44;59471.19;;;-141.97;100.00
19590;BME280;12231;42.782;23.388;2023-07-31T02:08:09;59471.19;;;-141.97;100.00
19590;BME280;12231;42.782;23.388;2023-07-31T02:10:34;59471.19;;;-141.97;100.00
19590;BME280;12231;42.782;23.388;2023-07-31T02:13:00;59471.19;;;-141.97;100.00
19590;BME280;12231;42.782;23.388;2023-07-31T02:15:25;59471.19;;;-141.97;100.00
19590;BME280;12231;42.782;23.388;2023-07-31T02:17:51;59471.19;;;-141.97;100.00
19590;BME280;12231;42.782;23.388;2023-07-31T02:20:16;59471.19;;;-141.97;100.00
19590;BME280;12231;42.782;23.388;2023-07-31T02:22:41;59471.19;;;-141.97;100.00
19590;BME280;12231;42.782;23.388;2023-07-31T02:25:07;59471.19;;;-141.97;100.00
19590;BME280;12231;42.782;23.388;2023-07-31T02:27:33;59471.19;;;-141.97;100.00
19590;BME280;12231;42.782;23.388;2023-07-31T02:29:58;59471.19;;;-141.97;100.00
19590;BME280;12231;42.782;23.388;2023-07-31T02:32:24;59471.19;;;-141.97;100.00
19590;BME280;12231;42.782;23.388;2023-07-31T02:34:50;59471.19;;;-141.97;100.00
19590;BME280;12231;42.782;23.388;2023-07-31T02:37:15;59471.19;;;-141.97;100.00
19590;BME280;12231;42.782;23.388;2023-07-31T02:39:40;59471.19;;;-141.97;100.00
19590;BME280;12231;42.782;23.388;2023-07-31T02:42:06;59471.19;;;-141.97;100.00
19590;BME280;12231;42.782;23.388;2023-07-31T02:44:31;59471.19;;;-141.97;100.00
19590;BME280;12231;42.782;23.388;2023-07-31T02:46:57;59471.19;;;-141.97;100.00
19590;BME280;12231;42.782;23.388;2023-07-31T02:49:22;59471.19;;;-141.97;100.00
19590;BME280;12231;42.782;23.388;2023-07-31T02:51:47;59471.19;;;-141.97;100.00
19590;BME280;12231;42.782;23.388;2023-07-31T02:54:13;59471.19;;;-141.97;100.00
19590;BME280;12231;42.782;23.388;2023-07-31T02:56:38;59471.19;;;-141.97;100.00
19590;BME280;12231;42.782;23.388;2023-07-31T02:59:04;59471.19;;;-141.97;100.00
19590;BME280;12231;42.782;23.388;2023-07-31T03:01:29;59471.19;;;-141.97;100.00
19590;BME280;12231;42.782;23.388;2023-07-31T03:03:54;59471.19;;;-141.97;100.00
19590;BME280;12231;42.782;23.388;2023-07-31T03:06:20;59471.19;;;-141.97;100.00
19590;BME280;12231;42.782;23.388;2023-07-31T03:08:45;59471.19;;;-141.97;100.00
19590;BME280;12231;42.782;23.388;2023-07-31T03:11:11;59471.19;;;-141.97;100.00
19590;BME280;12231;42.782;23.388;2023-07-31T03:13:36;59471.19;;;-141.97;100.00
19590;BME280;12231;42.782;23.388;2023-07-31T03:16:02;59471.19;;;-141.97;100.00
19590;BME280;12231;42.782;23.388;2023-07-31T03:18:27;59471.19;;;-141.97;100.00
19590;BME280;12231;42.782;23.388;2023-07-31T03:20:53;59471.19;;;-141.97;100.00
19590;BME280;12231;42.782;23.388;2023-07-31T03:23:18;59471.19;;;-141.97;100.00
19590;BME280;12231;42.782;23.388;2023-07-31T03:26:00;59471.19;;;-141.97;100.00
19590;BME280;12231;42.782;23.388;2023-07-31T03:28:26;59471.19;;;-141.97;100.00
19590;BME280;12231;42.782;23.388;2023-07-31T03:30:52;59471.19;;;-141.97;100.00
19590;BME280;12231;42.782;23.388;2023-07-31T03:33:17;59471.19;;;-141.97;100.00
19590;BME280;12231;42.782;23.388;2023-07-31T03:35:43;59471.19;;;-141.97;100.00
19590;BME280;12231;42.782;23.388;2023-07-31T03:38:08;59471.19;;;-141.97;100.00
19590;BME280;12231;42.782;23.388;2023-07-31T03:40:34;59471.19;;;-141.97;100.00
19590;BME280;12231;42.782;23.388;2023-07-31T03:42:59;59471.19;;;-141.97;100.00
19590;BME280;12231;42.782;23.388;2023-07-31T03:45:24;59471.19;;;-141.97;100.00
19590;BME280;12231;42.782;23.388;2023-07-31T03:47:50;59471.19;;;-141.97;100.00
19590;BME280;12231;42.782;23.388;2023-07-31T03:50:15;59471.19;;;-141.97;100.00
19590;BME280;12231;42.782;23.388;2023-07-31T03:52:41;59471.19;;;-141.97;100.00
19590;BME280;12231;42.782;23.388;2023-07-31T03:55:06;59471.19;;;-141.97;100.00
19590;BME280;12231;42.782;23.388;2023-07-31T03:57:32;59471.19;;;-141.97;100.00
19590;BME280;12231;42.782;23.388;2023-07-31T03:59:58;59471.19;;;-141.97;100.00
19590;BME280;12231;42.782;23.388;2023-07-31T04:02:23;59471.19;;;-141.97;100.00
19590;BME280;12231;42.782;23.388;2023-07-31T04:04:49;59471.19;;;-141.97;100.00
19590;BME280;12231;42.782;23.388;2023-07-31T04:07:14;59471.19;;;-141.97;100.00
19590;BME280;12231;42.782;23.388;2023-07-31T04:09:40;59471.19;;;-141.97;100.00
19590;BME280;12231;42.782;23.388;2023-07-31T04:12:05;59471.19;;;-141.97;100.00
19590;BME280;12231;42.782;23.388;2023-07-31T04:14:31;59471.19;;;-141.97;100.00
19590;BME280;12231;42.782;23.388;2023-07-31T04:16:56;59471.19;;;-141.97;100.00
19590;BME280;12231;42.782;23.388;2023-07-31T04:19:22;59471.19;;;-141.97;100.00
19590;BME280;12231;42.782;23.388;2023-07-31T04:21:47;59471.19;;;-141.97;100.00
19590;BME280;12231;42.782;23.388;2023-07-31T04:24:12;59471.19;;;-141.97;100.00
19590;BME280;12231;42.782;23.388;2023-07-31T04:26:38;59471.19;;;-141.97;100.00
19590;BME280;12231;42.782;23.388;2023-07-31T04:29:03;59471.19;;;-141.97;100.00
19590;BME280;12231;42.782;23.388;2023-07-31T04:31:29;59471.19;;;-141.97;100.00
19590;BME280;12231;42.782;23.388;2023-07-31T04:33:54;59471.19;;;-141.97;100.00
19590;BME280;12231;42.782;23.388;2023-07-31T04:36:20;59471.19;;;-141.97;100.00
19590;BME280;12231;42.782;23.388;2023-07-31T04:38:45;59471.19;;;-141.97;100.00
19590;BME280;12231;42.782;23.388;2023-07-31T04:41:10;59471.19;;;-141.97;100.00
19590;BME280;12231;42.782;23.388;2023-07-31T04:43:36;59471.19;;;-141.97;100.00
19590;BME280;12231;42.782;23.388;2023-07-31T04:46:04;59471.19;;;-141.97;100.00
19590;BME280;12231;42.782;23.388;2023-07-31T04:48:30;59471.19;;;-141.97;100.00
19590;BME280;12231;42.782;23.388;2023-07-31T04:50:55;59471.19;;;-141.97;100.00
19590;BME280;12231;42.782;23.388;2023-07-31T04:53:21;59471.19;;;-141.97;100.00
19590;BME280;12231;42.782;23.388;2023-07-31T04:55:46;59471.19;;;-141.97;100.00
19590;BME280;12231;42.782;23.388;2023-07-31T04:58:12;59471.19;;;-141.97;100.00
19590;BME280;12231;42.782;23.388;2023-07-31T05:00:37;59471.19;;;-141.97;100.00
19590;BME280;12231;42.782;23.388;2023-07-31T05:03:02;59471.19;;;-141.97;100.00
19590;BME280;12231;42.782;23.388;2023-07-31T05:05:28;59471.19;;;-141.97;100.00
19590;BME280;12231;42.782;23.388;2023-07-31T05:07:53;59471.19;;;-141.97;100.00
19590;BME280;12231;42.782;23.388;2023-07-31T05:10:18;59471.19;;;-141.97;100.00
19590;BME280;12231;42.782;23.388;2023-07-31T05:12:44;59471.19;;;-141.97;100.00
19590;BME280;12231;42.782;23.388;2023-07-31T05:15:09;59471.19;;;-141.97;100.00
19590;BME280;12231;42.782;23.388;2023-07-31T05:17:35;59471.19;;;-141.97;100.00
19590;BME280;12231;42.782;23.388;2023-07-31T05:20:00;59471.19;;;-141.97;100.00
19590;BME280;12231;42.782;23.388;2023-07-31T05:22:26;59471.19;;;-141.97;100.00
19590;BME280;12231;42.782;23.388;2023-07-31T05:24:51;59471.19;;;-141.97;100.00
19590;BME280;12231;42.782;23.388;2023-07-31T05:27:19;59471.19;;;-141.97;100.00
19590;BME280;12231;42.782;23.388;2023-07-31T05:29:44;59471.19;;;-141.97;100.00
19590;BME280;12231;42.782;23.388;2023-07-31T05:32:10;59471.19;;;-141.97;100.00
19590;BME280;12231;42.782;23.388;2023-07-31T05:34:36;59471.19;;;-141.97;100.00
19590;BME280;12231;42.782;23.388;2023-07-31T05:37:01;59471.19;;;-141.97;100.00
19590;BME280;12231;42.782;23.388;2023-07-31T05:39:26;59471.19;;;-141.97;100.00
19590;BME280;12231;42.782;23.388;2023-07-31T05:41:52;59471.19;;;-141.97;100.00
19590;BME280;12231;42.782;23.388;2023-07-31T05:44:17;59471.19;;;-141.97;100.00
19590;BME280;12231;42.782;23.388;2023-07-31T05:46:43;59471.19;;;-141.97;100.00
19590;BME280;12231;42.782;23.388;2023-07-31T05:49:08;59471.19;;;-141.97;100.00
19590;BME280;12231;42.782;23.388;2023-07-31T05:51:33;59471.19;;;-141.97;100.00
19590;BME280;12231;42.782;23.388;2023-07-31T05:53:59;59471.19;;;-141.97;100.00
19590;BME280;12231;42.782;23.388;2023-07-31T05:56:24;59471.19;;;-141.97;100.00
19590;BME280;12231;42.782;23.388;2023-07-31T05:58:50;59471.19;;;-141.97;100.00
19590;BME280;12231;42.782;23.388;2023-07-31T06:01:16;59471.19;;;-141.97;100.00
19590;BME280;12231;42.782;23.388;2023-07-31T06:03:42;59471.19;;;-141.97;100.00
19590;BME280;12231;42.782;23.388;2023-07-31T06:06:07;59471.19;;;-141.97;100.00
19590;BME280;12231;42.782;23.388;2023-07-31T06:08:33;59471.19;;;-141.97;100.00
19590;BME280;12231;42.782;23.388;2023-07-31T06:10:58;59471.19;;;-141.97;100.00
19590;BME280;12231;42.782;23.388;2023-07-31T06:13:24;59471.19;;;-141.97;100.00
19590;BME280;12231;42.782;23.388;2023-07-31T06:15:49;59471.19;;;-141.97;100.00
19590;BME280;12231;42.782;23.388;2023-07-31T06:18:16;59471.19;;;-141.97;100.00
19590;BME280;12231;42.782;23.388;2023-07-31T06:20:41;59471.19;;;-141.97;100.00
19590;BME280;12231;42.782;23.388;2023-07-31T06:23:07;59471.19;;;-141.97;100.00
19590;BME280;12231;42.782;23.388;2023-07-31T06:25:33;59471.19;;;-141.97;100.00
19590;BME280;12231;42.782;23.388;2023-07-31T06:27:58;59471.19;;;-141.97;100.00
19590;BME280;12231;42.782;23.388;2023-07-31T06:30:24;59471.19;;;-141.97;100.00
19590;BME280;12231;42.782;23.388;2023-07-31T06:32:49;59471.19;;;-141.97;100.00
19590;BME280;12231;42.782;23.388;2023-07-31T06:35:14;59471.19;;;-141.97;100.00
19590;BME280;12231;42.782;23.388;2023-07-31T06:37:40;59471.19;;;-141.97;100.00
19590;BME280;12231;42.782;23.388;2023-07-31T06:40:08;59471.19;;;-141.97;100.00
19590;BME280;12231;42.782;23.388;2023-07-31T06:42:34;59471.19;;;-141.97;100.00
19590;BME280;12231;42.782;23.388;2023-07-31T06:45:01;59471.19;;;-141.97;100.00
19590;BME280;12231;42.782;23.388;2023-07-31T06:47:26;59471.19;;;-141.97;100.00
19590;BME280;12231;42.782;23.388;2023-07-31T06:49:52;59471.19;;;-141.97;100.00
19590;BME280;12231;42.782;23.388;2023-07-31T06:52:17;59471.19;;;-141.97;100.00
19590;BME280;12231;42.782;23.388;2023-07-31T06:54:42;59471.19;;;-141.97;100.00
19590;BME280;12231;42.782;23.388;2023-07-31T06:57:08;59471.19;;;-141.97;100.00
19590;BME280;12231;42.782;23.388;2023-07-31T06:59:33;59471.19;;;-141.97;100.00
19590;BME280;12231;42.782;23.388;2023-07-31T07:01:59;59471.19;;;-141.97;100.00
19590;BME280;12231;42.782;23.388;2023-07-31T07:04:24;59471.19;;;-141.97;100.00
19590;BME280;12231;42.782;23.388;2023-07-31T07:06:49;59471.19;;;-141.97;100.00
19590;BME280;12231;42.782;23.388;2023-07-31T07:09:15;59471.19;;;-141.97;100.00
19590;BME280;12231;42.782;23.388;2023-07-31T07:11:40;59471.19;;;-141.97;100.00
19590;BME280;12231;42.782;23.388;2023-07-31T07:14:06;59471.19;;;-141.97;100.00
19590;BME280;12231;42.782;23.388;2023-07-31T07:16:31;59471.19;;;-141.97;100.00
19590;BME280;12231;42.782;23.388;2023-07-31T07:18:57;59471.19;;;-141.97;100.00
19590;BME280;12231;42.782;23.388;2023-07-31T07:21:22;59471.19;;;-141.97;100.00
19590;BME280;12231;42.782;23.388;2023-07-31T07:23:48;59471.19;;;-141.97;100.00
19590;BME280;12231;42.782;23.388;2023-07-31T07:26:13;59471.19;;;-141.97;100.00
19590;BME280;12231;42.782;23.388;2023-07-31T07:28:39;59471.19;;;-141.97;100.00
19590;BME280;12231;42.782;23.388;2023-07-31T07:31:04;59471.19;;;-141.97;100.00
19590;BME280;12231;42.782;23.388;2023-07-31T07:33:30;59471.19;;;-141.97;100.00
19590;BME280;12231;42.782;23.388;2023-07-31T07:35:55;59471.19;;;-141.97;100.00
19590;BME280;12231;42.782;23.388;2023-07-31T07:38:24;59471.19;;;-141.97;100.00
19590;BME280;12231;42.782;23.388;2023-07-31T07:40:50;59471.19;;;-141.97;100.00
19590;BME280;12231;42.782;23.388;2023-07-31T07:43:18;59471.19;;;-141.97;100.00
19590;BME280;12231;42.782;23.388;2023-07-31T07:45:43;59471.19;;;-141.97;100.00
19590;BME280;12231;42.782;23.388;2023-07-31T07:48:09;59471.19;;;-141.97;100.00
19590;BME280;12231;42.782;23.388;2023-07-31T07:50:34;59471.19;;;-141.97;100.00
19590;BME280;12231;42.782;23.388;2023-07-31T07:52:59;59471.19;;;-141.97;100.00
19590;BME280;12231;42.782;23.388;2023-07-31T07:55:25;59471.19;;;-141.97;100.00
19590;BME280;12231;42.782;23.388;2023-07-31T07:57:50;59471.19;;;-141.97;100.00
19590;BME280;12231;42.782;23.388;2023-07-31T08:00:16;59471.19;;;-141.97;100.00
19590;BME280;12231;42.782;23.388;2023-07-31T08:02:42;59471.19;;;-141.97;100.00
19590;BME280;12231;42.782;23.388;2023-07-31T08:05:08;59471.19;;;-141.97;100.00
19590;BME280;12231;42.782;23.388;2023-07-31T08:07:33;59471.19;;;-141.97;100.00
19590;BME280;12231;42.782;23.388;2023-07-31T08:09:59;59471.19;;;-141.97;100.00
19590;BME280;12231;42.782;23.388;2023-07-31T08:12:24;59471.19;;;-141.97;100.00
19590;BME280;12231;42.782;23.388;2023-07-31T08:14:50;59471.19;;;-141.97;100.00
19590;BME280;12231;42.782;23.388;2023-07-31T08:17:15;59471.19;;;-141.97;100.00
19590;BME280;12231;42.782;23.388;2023-07-31T08:19:40;59471.19;;;-141.97;100.00
19590;BME280;12231;42.782;23.388;2023-07-31T08:22:06;59471.19;;;-141.97;100.00
19590;BME280;12231;42.782;23.388;2023-07-31T08:24:31;59471.19;;;-141.97;100.00
19590;BME280;12231;42.782;23.388;2023-07-31T08:26:57;59471.19;;;-141.97;100.00
19590;BME280;12231;42.782;23.388;2023-07-31T08:29:22;59471.19;;;-141.97;100.00
19590;BME280;12231;42.782;23.388;2023-07-31T08:31:49;59471.19;;;-141.97;100.00
19590;BME280;12231;42.782;23.388;2023-07-31T08:34:14;59471.19;;;-141.97;100.00
19590;BME280;12231;42.782;23.388;2023-07-31T08:36:39;59471.19;;;-141.97;100.00
19590;BME280;12231;42.782;23.388;2023-07-31T08:39:05;59471.19;;;-141.97;100.00
19590;BME280;12231;42.782;23.388;2023-07-31T08:41:31;59471.19;;;-141.97;100.00
19590;BME280;12231;42.782;23.388;2023-07-31T08:43:56;59471.19;;;-141.97;100.00
19590;BME280;12231;42.782;23.388;2023-07-31T08:46:23;59471.19;;;-141.97;100.00
19590;BME280;12231;42.782;23.388;2023-07-31T08:48:49;59471.19;;;-141.97;100.00
19590;BME280;12231;42.782;23.388;2023-07-31T08:51:15;59471.19;;;-141.97;100.00
19590;BME280;12231;42.782;23.388;2023-07-31T08:53:41;59471.19;;;-141.97;100.00
19590;BME280;12231;42.782;23.388;2023-07-31T08:56:07;59471.19;;;-141.97;100.00
19590;BME280;12231;42.782;23.388;2023-07-31T08:58:33;59471.19;;;-141.97;100.00
19590;BME280;12231;42.782;23.388;2023-07-31T09:01:01;59471.19;;;-141.97;100.00
19590;BME280;12231;42.782;23.388;2023-07-31T09:03:33;59471.19;;;-141.97;100.00
19590;BME280;12231;42.782;23.388;2023-07-31T09:05:59;59471.19;;;-141.97;100.00
19590;BME280;12231;42.782;23.388;2023-07-31T09:08:26;59471.19;;;-141.97;100.00
19590;BME280;12231;42.782;23.388;2023-07-31T09:10:59;59471.19;;;-141.97;100.00
19590;BME280;12231;42.782;23.388;2023-07-31T09:13:27;59471.19;;;-141.97;100.00
19590;BME280;12231;42.782;23.388;2023-07-31T09:15:53;59471.19;;;-141.97;100.00
19590;BME280;12231;42.782;23.388;2023-07-31T09:18:18;59471.19;;;-141.97;100.00
19590;BME280;12231;42.782;23.388;2023-07-31T09:21:03;59471.19;;;-141.97;100.00
19590;BME280;12231;42.782;23.388;2023-07-31T09:23:43;59471.19;;;-141.97;100.00
19590;BME280;12231;42.782;23.388;2023-07-31T09:26:09;59471.19;;;-141.97;100.00
19590;BME280;12231;42.782;23.388;2023-07-31T09:28:34;59471.19;;;-141.97;100.00
19590;BME280;12231;42.782;23.388;2023-07-31T09:31:00;59471.19;;;-141.97;100.00
19590;BME280;12231;42.782;23.388;2023-07-31T09:33:25;59471.19;;;-141.97;100.00
19590;BME280;12231;42.782;23.388;2023-07-31T09:35:50;59471.19;;;-141.97;100.00
19590;BME280;12231;42.782;23.388;2023-07-31T09:38:16;59471.19;;;-141.97;100.00
19590;BME280;12231;42.782;23.388;2023-07-31T09:40:46;59471.19;;;-141.97;100.00
19590;BME280;12231;42.782;23.388;2023-07-31T09:43:13;59471.19;;;-141.97;100.00
19590;BME280;12231;42.782;23.388;2023-07-31T09:45:43;59471.19;;;-141.97;100.00
19590;BME280;12231;42.782;23.388;2023-07-31T09:48:14;59471.19;;;-141.97;100.00
19590;BME280;12231;42.782;23.388;2023-07-31T09:50:43;59471.19;;;-141.97;100.00
19590;BME280;12231;42.782;23.388;2023-07-31T09:53:09;59471.19;;;-141.97;100.00
19590;BME280;12231;42.782;23.388;2023-07-31T09:55:36;59471.19;;;-141.97;100.00
19590;BME280;12231;42.782;23.388;2023-07-31T09:58:06;59471.19;;;-141.97;100.00
19590;BME280;12231;42.782;23.388;2023-07-31T10:00:32;59471.19;;;-141.97;100.00
19590;BME280;12231;42.782;23.388;2023-07-31T10:03:02;59471.19;;;-141.97;100.00
19590;BME280;12231;42.782;23.388;2023-07-31T10:05:33;59471.19;;;-141.97;100.00
19590;BME280;12231;42.782;23.388;2023-07-31T10:07:59;59471.19;;;-141.97;100.00
19590;BME280;12231;42.782;23.388;2023-07-31T10:10:26;59471.19;;;-141.97;100.00
19590;BME280;12231;42.782;23.388;2023-07-31T10:12:53;59471.19;;;-141.97;100.00
19590;BME280;12231;42.782;23.388;2023-07-31T10:15:19;59471.19;;;-141.97;100.00
19590;BME280;12231;42.782;23.388;2023-07-31T10:17:49;59471.19;;;-141.97;100.00
19590;BME280;12231;42.782;23.388;2023-07-31T10:20:15;59471.19;;;-141.97;100.00
19590;BME280;12231;42.782;23.388;2023-07-31T10:22:44;59471.19;;;-141.97;100.00
19590;BME280;12231;42.782;23.388;2023-07-31T10:25:11;59471.19;;;-141.97;100.00
19590;BME280;12231;42.782;23.388;2023-07-31T10:27:38;59471.19;;;-141.97;100.00
19590;BME280;12231;42.782;23.388;2023-07-31T10:30:05;59471.19;;;-141.97;100.00
19590;BME280;12231;42.782;23.388;2023-07-31T10:32:33;59471.19;;;-141.97;100.00
19590;BME280;12231;42.782;23.388;2023-07-31T10:35:02;59471.19;;;-141.97;100.00
19590;BME280;12231;42.782;23.388;2023-07-31T10:37:35;59471.19;;;-141.97;100.00
19590;BME280;12231;42.782;23.388;2023-07-31T10:40:04;59471.19;;;-141.97;100.00
19590;BME280;12231;42.782;23.388;2023-07-31T10:42:38;59471.19;;;-141.97;100.00
19590;BME280;12231;42.782;23.388;2023-07-31T10:45:07;59471.19;;;-141.97;100.00
19590;BME280;12231;42.782;23.388;2023-07-31T10:47:39;59471.19;;;-141.97;100.00
19590;BME280;12231;42.782;23.388;2023-07-31T10:52:53;59471.19;;;-141.97;100.00
19590;BME280;12231;42.782;23.388;2023-07-31T10:55:36;59471.19;;;-141.97;100.00
19590;BME280;12231;42.782;23.388;2023-07-31T10:58:08;59471.19;;;-141.97;100.00
19590;BME280;12231;42.782;23.388;2023-07-31T11:00:37;59471.19;;;-141.97;100.00
19590;BME280;12231;42.782;23.388;2023-07-31T11:08:23;59471.19;;;-141.97;100.00
19590;BME280;12231;42.782;23.388;2023-07-31T11:11:06;59471.19;;;-141.97;100.00
19590;BME280;12231;42.782;23.388;2023-07-31T11:16:00;59471.19;;;-141.97;100.00
19590;BME280;12231;42.782;23.388;2023-07-31T11:18:28;59471.19;;;-141.97;100.00
19590;BME280;12231;42.782;23.388;2023-07-31T11:20:54;59471.19;;;-141.97;100.00
19590;BME280;12231;42.782;23.388;2023-07-31T11:23:21;59471.19;;;-141.97;100.00
19590;BME280;12231;42.782;23.388;2023-07-31T11:25:46;59471.19;;;-141.97;100.00
19590;BME280;12231;42.782;23.388;2023-07-31T11:28:18;59471.19;;;-141.97;100.00
19590;BME280;12231;42.782;23.388;2023-07-31T11:30:46;59471.19;;;-141.97;100.00
19590;BME280;12231;42.782;23.388;2023-07-31T11:33:13;59471.19;;;-141.97;100.00
19590;BME280;12231;42.782;23.388;2023-07-31T11:35:44;59471.19;;;-141.97;100.00
19590;BME280;12231;42.782;23.388;2023-07-31T11:41:02;59471.19;;;-141.97;100.00
19590;BME280;12231;42.782;23.388;2023-07-31T11:43:29;59471.19;;;-141.97;100.00
19590;BME280;12231;42.782;23.388;2023-07-31T11:45:56;59471.19;;;-141.97;100.00
19590;BME280;12231;42.782;23.388;2023-07-31T11:48:27;59471.19;;;-141.97;100.00
19590;BME280;12231;42.782;23.388;2023-07-31T11:51:04;59471.19;;;-141.97;100.00
19590;BME280;12231;42.782;23.388;2023-07-31T11:56:00;59471.19;;;-141.97;100.00
19590;BME280;12231;42.782;23.388;2023-07-31T11:58:27;59471.19;;;-141.97;100.00
19590;BME280;12231;42.782;23.388;2023-07-31T12:00:54;59471.19;;;-141.97;100.00
19590;BME280;12231;42.782;23.388;2023-07-31T12:03:20;59471.19;;;-141.97;100.00
19590;BME280;12231;42.782;23.388;2023-07-31T12:05:47;59471.19;;;-141.97;100.00
19590;BME280;12231;42.782;23.388;2023-07-31T12:08:13;59471.19;;;-141.97;100.00
19590;BME280;12231;42.782;23.388;2023-07-31T12:10:39;59471.19;;;-141.97;100.00
19590;BME280;12231;42.782;23.388;2023-07-31T12:13:09;59471.19;;;-141.97;100.00
19590;BME280;12231;42.782;23.388;2023-07-31T12:15:43;59471.19;;;-141.97;100.00
19590;BME280;12231;42.782;23.388;2023-07-31T12:18:10;59471.19;;;-141.97;100.00
19590;BME280;12231;42.782;23.388;2023-07-31T12:20:40;59471.19;;;-141.97;100.00
19590;BME280;12231;42.782;23.388;2023-07-31T12:23:07;59471.19;;;-141.97;100.00
19590;BME280;12231;42.782;23.388;2023-07-31T12:25:37;59471.19;;;-141.97;100.00
19590;BME280;12231;42.782;23.388;2023-07-31T12:28:06;59471.19;;;-141.97;100.00
19590;BME280;12231;42.782;23.388;2023-07-31T12:30:37;59471.19;;;-141.97;100.00
19590;BME280;12231;42.782;23.388;2023-07-31T12:33:13;59471.19;;;-141.97;100.00
19590;BME280;12231;42.782;23.388;2023-07-31T12:35:45;59471.19;;;-141.97;100.00
19590;BME280;12231;42.782;23.388;2023-07-31T12:38:12;59471.19;;;-141.97;100.00
19590;BME280;12231;42.782;23.388;2023-07-31T12:40:38;59471.19;;;-141.97;100.00